sensor_id;sensor_type;location;lat;lon;timestamp;pressure;altitude;pressure_sealevel;temperature;humidity
50065;BME280;64524;47.848;-122.338;2023-03-14T00:00:10;100462.88;;;7.96;100.00
50065;BME280;64524;47.848;-122.338;2023-03-14T00:02:44;100468.41;;;7.96;100.00
50065;BME280;64524;47.848;-122.338;2023-03-14T00:05:15;100470.48;;;7.96;100.00
50065;BME280;64524;47.848;-122.338;2023-03-14T00:07:49;100464.64;;;7.99;100.00
50065;BME280;64524;47.848;-122.338;2023-03-14T00:10:18;100466.77;;;8.01;100.00
50065;BME280;64524;47.848;-122.338;2023-03-14T00:12:52;100474.45;;;8.06;100.00
50065;BME280;64524;47.848;-122.338;2023-03-14T00:15:22;100477.81;;;8.10;100.00
50065;BME280;64524;47.848;-122.338;2023-03-14T00:17:52;100478.73;;;8.13;100.00
50065;BME280;64524;47.848;-122.338;2023-03-14T00:20:22;100480.48;;;8.15;100.00
50065;BME280;64524;47.848;-122.338;2023-03-14T00:22:55;100477.92;;;8.17;100.00
50065;BME280;64524;47.848;-122.338;2023-03-14T00:25:25;100476.80;;;8.22;100.00
50065;BME280;64524;47.848;-122.338;2023-03-14T00:27:55;100471.15;;;8.23;100.00
50065;BME280;64524;47.848;-122.338;2023-03-14T00:30:28;100462.83;;;8.22;100.00
50065;BME280;64524;47.848;-122.338;2023-03-14T00:33:07;100463.66;;;8.20;100.00
50065;BME280;64524;47.848;-122.338;2023-03-14T00:36:02;100467.35;;;8.24;100.00
50065;BME280;64524;47.848;-122.338;2023-03-14T00:38:43;100466.55;;;8.27;100.00
50065;BME280;64524;47.848;-122.338;2023-03-14T00:41:20;100466.75;;;8.29;100.00
50065;BME280;64524;47.848;-122.338;2023-03-14T00:43:51;100467.66;;;8.32;100.00
50065;BME280;64524;47.848;-122.338;2023-03-14T00:46:33;100465.27;;;8.34;100.00
50065;BME280;64524;47.848;-122.338;2023-03-14T00:52:10;100467.71;;;8.34;100.00
50065;BME280;64524;47.848;-122.338;2023-03-14T00:54:42;100467.76;;;8.37;100.00
50065;BME280;64524;47.848;-122.338;2023-03-14T00:57:20;100470.73;;;8.39;100.00
50065;BME280;64524;47.848;-122.338;2023-03-14T00:59:53;100465.45;;;8.43;100.00
50065;BME280;64524;47.848;-122.338;2023-03-14T01:02:22;100467.63;;;8.48;100.00
50065;BME280;64524;47.848;-122.338;2023-03-14T01:04:52;100469.40;;;8.52;100.00
50065;BME280;64524;47.848;-122.338;2023-03-14T01:07:22;100466.02;;;8.56;100.00
50065;BME280;64524;47.848;-122.338;2023-03-14T01:09:53;100465.57;;;8.60;100.00
50065;BME280;64524;47.848;-122.338;2023-03-14T01:12:29;100466.14;;;8.63;100.00
50065;BME280;64524;47.848;-122.338;2023-03-14T01:15:01;100462.88;;;8.65;100.00
50065;BME280;64524;47.848;-122.338;2023-03-14T01:17:32;100464.44;;;8.65;100.00
50065;BME280;64524;47.848;-122.338;2023-03-14T01:20:11;100459.66;;;8.69;100.00
50065;BME280;64524;47.848;-122.338;2023-03-14T01:22:44;100457.75;;;8.68;100.00
50065;BME280;64524;47.848;-122.338;2023-03-14T01:25:15;100455.80;;;8.65;100.00
50065;BME280;64524;47.848;-122.338;2023-03-14T01:27:50;100458.24;;;8.67;100.00
50065;BME280;64524;47.848;-122.338;2023-03-14T01:37:05;100457.45;;;8.71;100.00
50065;BME280;64524;47.848;-122.338;2023-03-14T01:40:05;100457.94;;;8.69;100.00
50065;BME280;64524;47.848;-122.338;2023-03-14T01:43:38;100462.05;;;8.67;100.00
50065;BME280;64524;47.848;-122.338;2023-03-14T01:53:12;100467.54;;;8.54;100.00
50065;BME280;64524;47.848;-122.338;2023-03-14T01:56:06;100467.83;;;8.50;100.00
50065;BME280;64524;47.848;-122.338;2023-03-14T01:58:53;100474.14;;;8.46;100.00
50065;BME280;64524;47.848;-122.338;2023-03-14T02:01:27;100478.85;;;8.39;100.00
50065;BME280;64524;47.848;-122.338;2023-03-14T02:04:00;100480.10;;;8.33;100.00
50065;BME280;64524;47.848;-122.338;2023-03-14T02:10:48;100491.83;;;8.22;100.00
50065;BME280;64524;47.848;-122.338;2023-03-14T02:27:09;100519.41;;;7.85;100.00
50065;BME280;64524;47.848;-122.338;2023-03-14T02:30:05;100523.56;;;7.77;100.00
50065;BME280;64524;47.848;-122.338;2023-03-14T02:32:37;100517.15;;;7.67;100.00
50065;BME280;64524;47.848;-122.338;2023-03-14T02:35:11;100523.69;;;7.57;100.00
50065;BME280;64524;47.848;-122.338;2023-03-14T02:38:30;100522.11;;;7.48;100.00
50065;BME280;64524;47.848;-122.338;2023-03-14T02:40:43;100532.05;;;7.37;100.00
50065;BME280;64524;47.848;-122.338;2023-03-14T02:43:16;100531.36;;;7.29;100.00
50065;BME280;64524;47.848;-122.338;2023-03-14T02:45:48;100531.91;;;7.23;100.00
50065;BME280;64524;47.848;-122.338;2023-03-14T02:48:46;100531.56;;;7.16;100.00
50065;BME280;64524;47.848;-122.338;2023-03-14T02:51:17;100534.19;;;7.10;100.00
50065;BME280;64524;47.848;-122.338;2023-03-14T02:53:49;100534.13;;;7.07;100.00
50065;BME280;64524;47.848;-122.338;2023-03-14T02:56:22;100540.44;;;7.05;100.00
50065;BME280;64524;47.848;-122.338;2023-03-14T02:59:14;100545.36;;;7.01;100.00
50065;BME280;64524;47.848;-122.338;2023-03-14T03:02:13;100554.73;;;6.97;100.00
50065;BME280;64524;47.848;-122.338;2023-03-14T03:04:52;100560.19;;;6.95;100.00
50065;BME280;64524;47.848;-122.338;2023-03-14T03:07:24;100564.71;;;6.89;100.00
50065;BME280;64524;47.848;-122.338;2023-03-14T03:09:55;100572.84;;;6.84;100.00
50065;BME280;64524;47.848;-122.338;2023-03-14T03:12:47;100575.19;;;6.75;100.00
50065;BME280;64524;47.848;-122.338;2023-03-14T03:15:17;100582.09;;;6.68;100.00
50065;BME280;64524;47.848;-122.338;2023-03-14T03:17:46;100588.44;;;6.61;100.00
50065;BME280;64524;47.848;-122.338;2023-03-14T03:20:15;100593.89;;;6.52;100.00
50065;BME280;64524;47.848;-122.338;2023-03-14T03:22:43;100591.06;;;6.43;100.00
50065;BME280;64524;47.848;-122.338;2023-03-14T03:25:17;100592.02;;;6.33;100.00
50065;BME280;64524;47.848;-122.338;2023-03-14T03:27:46;100596.34;;;6.28;100.00
50065;BME280;64524;47.848;-122.338;2023-03-14T03:30:15;100600.16;;;6.23;100.00
50065;BME280;64524;47.848;-122.338;2023-03-14T03:33:18;100604.60;;;6.22;100.00
50065;BME280;64524;47.848;-122.338;2023-03-14T03:35:50;100615.73;;;6.26;100.00
50065;BME280;64524;47.848;-122.338;2023-03-14T03:38:22;100617.23;;;6.30;100.00
50065;BME280;64524;47.848;-122.338;2023-03-14T03:47:52;100637.61;;;6.46;100.00
50065;BME280;64524;47.848;-122.338;2023-03-14T03:53:37;100640.61;;;6.55;100.00
50065;BME280;64524;47.848;-122.338;2023-03-14T03:56:49;100640.54;;;6.59;100.00
50065;BME280;64524;47.848;-122.338;2023-03-14T03:59:58;100644.95;;;6.63;100.00
50065;BME280;64524;47.848;-122.338;2023-03-14T04:06:23;100657.77;;;6.66;100.00
50065;BME280;64524;47.848;-122.338;2023-03-14T04:08:54;100659.33;;;6.66;100.00
50065;BME280;64524;47.848;-122.338;2023-03-14T04:11:26;100667.19;;;6.64;100.00
50065;BME280;64524;47.848;-122.338;2023-03-14T04:13:55;100672.30;;;6.62;100.00
50065;BME280;64524;47.848;-122.338;2023-03-14T04:16:33;100680.26;;;6.58;100.00
50065;BME280;64524;47.848;-122.338;2023-03-14T04:19:34;100684.08;;;6.52;100.00
50065;BME280;64524;47.848;-122.338;2023-03-14T04:22:44;100686.83;;;6.46;100.00
50065;BME280;64524;47.848;-122.338;2023-03-14T04:25:16;100693.83;;;6.38;100.00
50065;BME280;64524;47.848;-122.338;2023-03-14T04:27:47;100701.75;;;6.32;100.00
50065;BME280;64524;47.848;-122.338;2023-03-14T04:30:22;100705.57;;;6.27;100.00
50065;BME280;64524;47.848;-122.338;2023-03-14T04:32:50;100712.11;;;6.22;100.00
50065;BME280;64524;47.848;-122.338;2023-03-14T04:35:19;100710.02;;;6.15;100.00
50065;BME280;64524;47.848;-122.338;2023-03-14T04:37:58;100710.89;;;6.10;100.00
50065;BME280;64524;47.848;-122.338;2023-03-14T04:40:27;100716.06;;;6.04;100.00
50065;BME280;64524;47.848;-122.338;2023-03-14T04:42:56;100727.16;;;6.02;100.00
50065;BME280;64524;47.848;-122.338;2023-03-14T04:45:25;100727.64;;;6.01;100.00
50065;BME280;64524;47.848;-122.338;2023-03-14T04:48:00;100736.55;;;5.99;100.00
50065;BME280;64524;47.848;-122.338;2023-03-14T04:50:29;100747.00;;;5.98;100.00
50065;BME280;64524;47.848;-122.338;2023-03-14T04:53:19;100747.58;;;5.95;100.00
50065;BME280;64524;47.848;-122.338;2023-03-14T04:55:54;100755.17;;;5.91;100.00
50065;BME280;64524;47.848;-122.338;2023-03-14T04:58:33;100761.24;;;5.87;100.00
50065;BME280;64524;47.848;-122.338;2023-03-14T05:01:06;100766.38;;;5.81;100.00
50065;BME280;64524;47.848;-122.338;2023-03-14T05:03:49;100776.91;;;5.77;100.00
50065;BME280;64524;47.848;-122.338;2023-03-14T05:06:18;100785.21;;;5.73;100.00
50065;BME280;64524;47.848;-122.338;2023-03-14T05:08:47;100784.41;;;5.70;100.00
50065;BME280;64524;47.848;-122.338;2023-03-14T05:11:39;100782.63;;;5.68;100.00
50065;BME280;64524;47.848;-122.338;2023-03-14T05:14:09;100785.73;;;5.68;100.00
50065;BME280;64524;47.848;-122.338;2023-03-14T05:16:41;100789.55;;;5.69;100.00
50065;BME280;64524;47.848;-122.338;2023-03-14T05:19:21;100794.77;;;5.72;100.00
50065;BME280;64524;47.848;-122.338;2023-03-14T05:21:50;100796.21;;;5.73;100.00
50065;BME280;64524;47.848;-122.338;2023-03-14T05:24:31;100798.80;;;5.74;100.00
50065;BME280;64524;47.848;-122.338;2023-03-14T05:27:06;100802.84;;;5.76;100.00
50065;BME280;64524;47.848;-122.338;2023-03-14T05:29:35;100805.06;;;5.81;100.00
50065;BME280;64524;47.848;-122.338;2023-03-14T05:32:24;100801.16;;;5.89;100.00
50065;BME280;64524;47.848;-122.338;2023-03-14T05:35:22;100806.86;;;5.94;100.00
50065;BME280;64524;47.848;-122.338;2023-03-14T05:38:38;100807.19;;;5.98;100.00
50065;BME280;64524;47.848;-122.338;2023-03-14T05:44:59;100810.19;;;6.06;100.00
50065;BME280;64524;47.848;-122.338;2023-03-14T05:51:11;100814.16;;;6.06;100.00
50065;BME280;64524;47.848;-122.338;2023-03-14T05:53:59;100815.08;;;6.08;100.00
50065;BME280;64524;47.848;-122.338;2023-03-14T05:59:57;100815.19;;;6.12;100.00
50065;BME280;64524;47.848;-122.338;2023-03-14T06:09:36;100828.84;;;6.08;100.00
50065;BME280;64524;47.848;-122.338;2023-03-14T06:12:28;100831.13;;;6.10;100.00
50065;BME280;64524;47.848;-122.338;2023-03-14T06:15:01;100834.09;;;6.11;100.00
50065;BME280;64524;47.848;-122.338;2023-03-14T06:17:30;100836.19;;;6.13;100.00
50065;BME280;64524;47.848;-122.338;2023-03-14T06:20:26;100842.61;;;6.14;100.00
50065;BME280;64524;47.848;-122.338;2023-03-14T06:23:06;100846.41;;;6.15;100.00
50065;BME280;64524;47.848;-122.338;2023-03-14T06:25:54;100849.23;;;6.18;100.00
50065;BME280;64524;47.848;-122.338;2023-03-14T06:28:47;100850.30;;;6.18;100.00
50065;BME280;64524;47.848;-122.338;2023-03-14T06:31:45;100849.03;;;6.16;100.00
50065;BME280;64524;47.848;-122.338;2023-03-14T06:34:21;100857.27;;;6.16;100.00
50065;BME280;64524;47.848;-122.338;2023-03-14T06:37:30;100852.52;;;6.18;100.00
50065;BME280;64524;47.848;-122.338;2023-03-14T06:40:02;100849.95;;;6.18;100.00
50065;BME280;64524;47.848;-122.338;2023-03-14T06:42:39;100848.30;;;6.15;100.00
50065;BME280;64524;47.848;-122.338;2023-03-14T06:45:31;100858.41;;;6.13;100.00
50065;BME280;64524;47.848;-122.338;2023-03-14T06:48:44;100864.05;;;6.12;100.00
50065;BME280;64524;47.848;-122.338;2023-03-14T06:51:44;100860.25;;;6.11;100.00
50065;BME280;64524;47.848;-122.338;2023-03-14T06:54:12;100865.21;;;6.11;100.00
50065;BME280;64524;47.848;-122.338;2023-03-14T07:03:29;100883.04;;;6.09;100.00
50065;BME280;64524;47.848;-122.338;2023-03-14T07:06:10;100883.38;;;6.09;100.00
50065;BME280;64524;47.848;-122.338;2023-03-14T07:08:42;100884.23;;;6.08;100.00
50065;BME280;64524;47.848;-122.338;2023-03-14T07:11:25;100889.20;;;6.09;100.00
50065;BME280;64524;47.848;-122.338;2023-03-14T07:14:33;100894.70;;;6.08;100.00
50065;BME280;64524;47.848;-122.338;2023-03-14T07:17:06;100902.95;;;6.08;100.00
50065;BME280;64524;47.848;-122.338;2023-03-14T07:20:00;100906.60;;;6.09;100.00
50065;BME280;64524;47.848;-122.338;2023-03-14T07:22:33;100914.64;;;6.08;100.00
50065;BME280;64524;47.848;-122.338;2023-03-14T07:25:30;100925.79;;;6.07;100.00
50065;BME280;64524;47.848;-122.338;2023-03-14T07:28:09;100929.08;;;6.08;100.00
50065;BME280;64524;47.848;-122.338;2023-03-14T07:33:50;100937.53;;;6.08;100.00
50065;BME280;64524;47.848;-122.338;2023-03-14T07:36:59;100939.02;;;6.07;100.00
50065;BME280;64524;47.848;-122.338;2023-03-14T07:39:55;100939.27;;;6.09;100.00
50065;BME280;64524;47.848;-122.338;2023-03-14T07:42:48;100937.91;;;6.09;100.00
50065;BME280;64524;47.848;-122.338;2023-03-14T07:45:27;100936.37;;;6.09;100.00
50065;BME280;64524;47.848;-122.338;2023-03-14T07:48:15;100935.72;;;6.10;100.00
50065;BME280;64524;47.848;-122.338;2023-03-14T07:50:48;100940.06;;;6.12;100.00
50065;BME280;64524;47.848;-122.338;2023-03-14T07:56:07;100954.30;;;6.17;100.00
50065;BME280;64524;47.848;-122.338;2023-03-14T07:58:39;100965.73;;;6.18;100.00
50065;BME280;64524;47.848;-122.338;2023-03-14T08:01:08;100965.77;;;6.20;100.00
50065;BME280;64524;47.848;-122.338;2023-03-14T08:03:49;100967.66;;;6.20;100.00
50065;BME280;64524;47.848;-122.338;2023-03-14T08:06:47;100966.13;;;6.21;100.00
50065;BME280;64524;47.848;-122.338;2023-03-14T08:09:39;100972.92;;;6.23;100.00
50065;BME280;64524;47.848;-122.338;2023-03-14T08:15:39;100968.36;;;6.20;100.00
50065;BME280;64524;47.848;-122.338;2023-03-14T08:18:08;100979.27;;;6.17;100.00
50065;BME280;64524;47.848;-122.338;2023-03-14T08:20:40;100979.73;;;6.15;100.00
50065;BME280;64524;47.848;-122.338;2023-03-14T08:23:29;100984.20;;;6.15;100.00
50065;BME280;64524;47.848;-122.338;2023-03-14T08:26:40;100982.68;;;6.16;100.00
50065;BME280;64524;47.848;-122.338;2023-03-14T08:29:14;100986.29;;;6.16;100.00
50065;BME280;64524;47.848;-122.338;2023-03-14T08:32:16;100994.05;;;6.17;100.00
50065;BME280;64524;47.848;-122.338;2023-03-14T08:38:04;101001.32;;;6.13;100.00
50065;BME280;64524;47.848;-122.338;2023-03-14T08:40:45;101002.36;;;6.13;100.00
50065;BME280;64524;47.848;-122.338;2023-03-14T08:43:17;101009.41;;;6.13;100.00
50065;BME280;64524;47.848;-122.338;2023-03-14T08:49:03;101017.56;;;6.10;100.00
50065;BME280;64524;47.848;-122.338;2023-03-14T08:52:21;101015.36;;;6.06;100.00
50065;BME280;64524;47.848;-122.338;2023-03-14T08:55:04;101017.29;;;6.02;100.00
50065;BME280;64524;47.848;-122.338;2023-03-14T09:00:31;101026.34;;;5.96;100.00
50065;BME280;64524;47.848;-122.338;2023-03-14T09:03:40;101031.36;;;5.92;100.00
50065;BME280;64524;47.848;-122.338;2023-03-14T09:06:49;101028.99;;;5.89;100.00
50065;BME280;64524;47.848;-122.338;2023-03-14T09:09:40;101030.60;;;5.86;100.00
50065;BME280;64524;47.848;-122.338;2023-03-14T09:12:12;101034.30;;;5.84;100.00
50065;BME280;64524;47.848;-122.338;2023-03-14T09:15:11;101039.64;;;5.79;100.00
50065;BME280;64524;47.848;-122.338;2023-03-14T09:17:52;101039.15;;;5.74;100.00
50065;BME280;64524;47.848;-122.338;2023-03-14T09:20:51;101040.72;;;5.71;100.00
50065;BME280;64524;47.848;-122.338;2023-03-14T09:23:41;101043.48;;;5.66;100.00
50065;BME280;64524;47.848;-122.338;2023-03-14T09:26:12;101046.10;;;5.63;100.00
50065;BME280;64524;47.848;-122.338;2023-03-14T09:28:50;101050.45;;;5.60;100.00
50065;BME280;64524;47.848;-122.338;2023-03-14T09:31:35;101050.47;;;5.56;100.00
50065;BME280;64524;47.848;-122.338;2023-03-14T09:34:50;101055.36;;;5.53;100.00
50065;BME280;64524;47.848;-122.338;2023-03-14T09:37:22;101053.20;;;5.51;100.00
50065;BME280;64524;47.848;-122.338;2023-03-14T09:39:53;101052.94;;;5.48;100.00
50065;BME280;64524;47.848;-122.338;2023-03-14T09:42:25;101054.26;;;5.47;100.00
50065;BME280;64524;47.848;-122.338;2023-03-14T09:47:49;101062.95;;;5.45;100.00
50065;BME280;64524;47.848;-122.338;2023-03-14T09:53:42;101062.34;;;5.42;100.00
50065;BME280;64524;47.848;-122.338;2023-03-14T09:56:37;101064.14;;;5.40;100.00
50065;BME280;64524;47.848;-122.338;2023-03-14T09:59:14;101063.27;;;5.40;100.00
50065;BME280;64524;47.848;-122.338;2023-03-14T10:05:18;101058.77;;;5.39;100.00
50065;BME280;64524;47.848;-122.338;2023-03-14T10:18:00;101067.63;;;5.37;100.00
50065;BME280;64524;47.848;-122.338;2023-03-14T10:21:01;101064.55;;;5.37;100.00
50065;BME280;64524;47.848;-122.338;2023-03-14T10:26:39;101055.48;;;5.43;100.00
50065;BME280;64524;47.848;-122.338;2023-03-14T10:29:18;101052.93;;;5.44;100.00
50065;BME280;64524;47.848;-122.338;2023-03-14T10:32:05;101046.48;;;5.45;100.00
50065;BME280;64524;47.848;-122.338;2023-03-14T10:35:20;101046.08;;;5.48;100.00
50065;BME280;64524;47.848;-122.338;2023-03-14T10:38:36;101043.39;;;5.50;100.00
50065;BME280;64524;47.848;-122.338;2023-03-14T10:41:34;101046.55;;;5.52;100.00
50065;BME280;64524;47.848;-122.338;2023-03-14T10:47:27;101039.00;;;5.52;100.00
50065;BME280;64524;47.848;-122.338;2023-03-14T10:53:57;101039.69;;;5.48;100.00
50065;BME280;64524;47.848;-122.338;2023-03-14T10:56:37;101045.02;;;5.48;100.00
50065;BME280;64524;47.848;-122.338;2023-03-14T10:59:16;101046.94;;;5.48;100.00
50065;BME280;64524;47.848;-122.338;2023-03-14T11:05:34;101052.50;;;5.50;100.00
50065;BME280;64524;47.848;-122.338;2023-03-14T11:11:31;101055.20;;;5.53;100.00
50065;BME280;64524;47.848;-122.338;2023-03-14T11:14:41;101053.27;;;5.57;100.00
50065;BME280;64524;47.848;-122.338;2023-03-14T11:17:52;101054.79;;;5.61;100.00
50065;BME280;64524;47.848;-122.338;2023-03-14T11:20:52;101054.23;;;5.65;100.00
50065;BME280;64524;47.848;-122.338;2023-03-14T11:36:59;101045.10;;;5.78;100.00
50065;BME280;64524;47.848;-122.338;2023-03-14T11:39:38;101045.67;;;5.80;100.00
50065;BME280;64524;47.848;-122.338;2023-03-14T11:42:15;101039.37;;;5.81;100.00
50065;BME280;64524;47.848;-122.338;2023-03-14T11:44:48;101040.27;;;5.82;100.00
50065;BME280;64524;47.848;-122.338;2023-03-14T11:47:36;101037.62;;;5.85;100.00
50065;BME280;64524;47.848;-122.338;2023-03-14T11:50:38;101036.70;;;5.88;100.00
50065;BME280;64524;47.848;-122.338;2023-03-14T11:53:34;101037.55;;;5.92;100.00
50065;BME280;64524;47.848;-122.338;2023-03-14T11:56:43;101039.14;;;5.98;100.00
50065;BME280;64524;47.848;-122.338;2023-03-14T11:59:52;101041.48;;;6.01;100.00
50065;BME280;64524;47.848;-122.338;2023-03-14T12:02:43;101038.85;;;6.04;100.00
50065;BME280;64524;47.848;-122.338;2023-03-14T12:16:35;101034.66;;;6.12;100.00
50065;BME280;64524;47.848;-122.338;2023-03-14T12:19:46;101035.20;;;6.13;100.00
50065;BME280;64524;47.848;-122.338;2023-03-14T12:22:48;101029.55;;;6.14;100.00
50065;BME280;64524;47.848;-122.338;2023-03-14T12:28:32;101022.78;;;6.12;100.00
50065;BME280;64524;47.848;-122.338;2023-03-14T12:34:57;101026.63;;;6.09;100.00
50065;BME280;64524;47.848;-122.338;2023-03-14T12:37:46;101025.17;;;6.07;100.00
50065;BME280;64524;47.848;-122.338;2023-03-14T12:40:37;101027.86;;;6.05;100.00
50065;BME280;64524;47.848;-122.338;2023-03-14T12:43:49;101026.80;;;6.04;100.00
50065;BME280;64524;47.848;-122.338;2023-03-14T12:49:19;101021.44;;;6.03;100.00
50065;BME280;64524;47.848;-122.338;2023-03-14T12:52:02;101025.61;;;6.04;100.00
50065;BME280;64524;47.848;-122.338;2023-03-14T12:58:16;101021.42;;;6.07;100.00
50065;BME280;64524;47.848;-122.338;2023-03-14T13:01:10;101019.35;;;6.07;100.00
50065;BME280;64524;47.848;-122.338;2023-03-14T13:03:56;101015.98;;;6.05;100.00
50065;BME280;64524;47.848;-122.338;2023-03-14T13:06:54;101015.45;;;6.04;100.00
50065;BME280;64524;47.848;-122.338;2023-03-14T13:13:25;101017.01;;;6.04;100.00
50065;BME280;64524;47.848;-122.338;2023-03-14T13:15:59;101012.52;;;6.04;100.00
50065;BME280;64524;47.848;-122.338;2023-03-14T13:18:51;101012.52;;;6.04;100.00
50065;BME280;64524;47.848;-122.338;2023-03-14T13:22:00;101009.21;;;6.02;100.00
50065;BME280;64524;47.848;-122.338;2023-03-14T13:31:26;101007.20;;;5.95;100.00
50065;BME280;64524;47.848;-122.338;2023-03-14T13:34:05;101003.42;;;5.91;100.00
50065;BME280;64524;47.848;-122.338;2023-03-14T13:36:36;101001.27;;;5.88;100.00
50065;BME280;64524;47.848;-122.338;2023-03-14T13:39:13;101003.42;;;5.85;100.00
50065;BME280;64524;47.848;-122.338;2023-03-14T13:41:54;101004.19;;;5.82;100.00
50065;BME280;64524;47.848;-122.338;2023-03-14T13:44:51;101005.77;;;5.79;100.00
50065;BME280;64524;47.848;-122.338;2023-03-14T13:47:24;101007.31;;;5.74;100.00
50065;BME280;64524;47.848;-122.338;2023-03-14T13:50:38;101008.73;;;5.70;100.00
50065;BME280;64524;47.848;-122.338;2023-03-14T13:53:11;101008.47;;;5.68;100.00
50065;BME280;64524;47.848;-122.338;2023-03-14T13:55:43;101013.77;;;5.67;100.00
50065;BME280;64524;47.848;-122.338;2023-03-14T14:01:35;101010.11;;;5.66;100.00
50065;BME280;64524;47.848;-122.338;2023-03-14T14:07:24;101014.34;;;5.64;100.00
50065;BME280;64524;47.848;-122.338;2023-03-14T14:09:54;101014.28;;;5.62;100.00
50065;BME280;64524;47.848;-122.338;2023-03-14T14:12:57;101015.41;;;5.61;100.00
50065;BME280;64524;47.848;-122.338;2023-03-14T14:15:52;101012.45;;;5.59;100.00
50065;BME280;64524;47.848;-122.338;2023-03-14T14:18:29;101010.72;;;5.59;100.00
50065;BME280;64524;47.848;-122.338;2023-03-14T14:21:19;101008.27;;;5.58;100.00
50065;BME280;64524;47.848;-122.338;2023-03-14T14:24:13;101004.24;;;5.55;100.00
50065;BME280;64524;47.848;-122.338;2023-03-14T14:33:59;101005.55;;;5.49;100.00
50065;BME280;64524;47.848;-122.338;2023-03-14T14:36:49;101005.18;;;5.48;100.00
50065;BME280;64524;47.848;-122.338;2023-03-14T14:39:46;101007.52;;;5.47;100.00
50065;BME280;64524;47.848;-122.338;2023-03-14T14:42:19;101006.33;;;5.47;100.00
50065;BME280;64524;47.848;-122.338;2023-03-14T14:44:55;101002.66;;;5.45;100.00
50065;BME280;64524;47.848;-122.338;2023-03-14T14:47:26;101004.45;;;5.43;100.00
50065;BME280;64524;47.848;-122.338;2023-03-14T14:50:02;101005.90;;;5.40;100.00
50065;BME280;64524;47.848;-122.338;2023-03-14T14:52:41;101002.35;;;5.37;100.00
50065;BME280;64524;47.848;-122.338;2023-03-14T15:03:54;100994.28;;;5.24;100.00
50065;BME280;64524;47.848;-122.338;2023-03-14T15:06:43;100992.67;;;5.22;100.00
50065;BME280;64524;47.848;-122.338;2023-03-14T15:09:23;100993.28;;;5.19;100.00
50065;BME280;64524;47.848;-122.338;2023-03-14T15:11:55;100992.52;;;5.17;100.00
50065;BME280;64524;47.848;-122.338;2023-03-14T15:24:47;100985.14;;;5.13;100.00
50065;BME280;64524;47.848;-122.338;2023-03-14T15:27:25;100986.59;;;5.15;100.00
50065;BME280;64524;47.848;-122.338;2023-03-14T15:30:17;100985.94;;;5.16;100.00
50065;BME280;64524;47.848;-122.338;2023-03-14T15:32:46;100983.23;;;5.17;100.00
50065;BME280;64524;47.848;-122.338;2023-03-14T15:35:21;100979.04;;;5.20;100.00
50065;BME280;64524;47.848;-122.338;2023-03-14T15:37:58;100979.13;;;5.22;100.00
50065;BME280;64524;47.848;-122.338;2023-03-14T15:44:00;100980.13;;;5.30;100.00
50065;BME280;64524;47.848;-122.338;2023-03-14T15:46:40;100978.92;;;5.35;100.00
50065;BME280;64524;47.848;-122.338;2023-03-14T15:50:10;100975.65;;;5.39;100.00
50065;BME280;64524;47.848;-122.338;2023-03-14T15:53:07;100974.66;;;5.45;100.00
50065;BME280;64524;47.848;-122.338;2023-03-14T15:59:40;100976.50;;;5.53;100.00
50065;BME280;64524;47.848;-122.338;2023-03-14T16:02:31;100974.23;;;5.57;100.00
50065;BME280;64524;47.848;-122.338;2023-03-14T16:08:56;100972.44;;;5.69;100.00
50065;BME280;64524;47.848;-122.338;2023-03-14T16:11:54;100974.55;;;5.76;100.00
50065;BME280;64524;47.848;-122.338;2023-03-14T16:24:28;100974.73;;;5.95;100.00
50065;BME280;64524;47.848;-122.338;2023-03-14T17:36:10;100896.77;;;6.80;100.00
50065;BME280;64524;47.848;-122.338;2023-03-14T17:39:00;100893.55;;;6.82;100.00
50065;BME280;64524;47.848;-122.338;2023-03-14T17:45:30;100881.91;;;6.84;100.00
50065;BME280;64524;47.848;-122.338;2023-03-14T18:05:09;100849.33;;;7.13;100.00
50065;BME280;64524;47.848;-122.338;2023-03-14T18:15:05;100835.41;;;7.26;100.00
50065;BME280;64524;47.848;-122.338;2023-03-14T18:18:23;100837.38;;;7.29;100.00
50065;BME280;64524;47.848;-122.338;2023-03-14T18:21:32;100837.64;;;7.33;100.00
50065;BME280;64524;47.848;-122.338;2023-03-14T18:24:58;100830.11;;;7.35;100.00
50065;BME280;64524;47.848;-122.338;2023-03-14T18:35:24;100825.65;;;7.42;100.00
50065;BME280;64524;47.848;-122.338;2023-03-14T18:37:55;100822.58;;;7.43;100.00
50065;BME280;64524;47.848;-122.338;2023-03-14T18:40:44;100821.36;;;7.43;100.00
50065;BME280;64524;47.848;-122.338;2023-03-14T18:43:33;100819.08;;;7.41;100.00
50065;BME280;64524;47.848;-122.338;2023-03-14T18:46:42;100813.38;;;7.41;100.00
50065;BME280;64524;47.848;-122.338;2023-03-14T18:49:50;100805.41;;;7.39;100.00
50065;BME280;64524;47.848;-122.338;2023-03-14T18:56:26;100802.81;;;7.32;100.00
50065;BME280;64524;47.848;-122.338;2023-03-14T19:02:55;100796.56;;;7.24;100.00
50065;BME280;64524;47.848;-122.338;2023-03-14T19:13:19;100783.80;;;7.17;100.00
50065;BME280;64524;47.848;-122.338;2023-03-14T19:22:52;100773.89;;;7.20;100.00
50065;BME280;64524;47.848;-122.338;2023-03-14T19:25:55;100767.23;;;7.23;100.00
50065;BME280;64524;47.848;-122.338;2023-03-14T19:31:43;100758.92;;;7.34;100.00
50065;BME280;64524;47.848;-122.338;2023-03-14T19:38:06;100742.12;;;7.44;100.00
50065;BME280;64524;47.848;-122.338;2023-03-14T19:40:56;100738.73;;;7.47;100.00
50065;BME280;64524;47.848;-122.338;2023-03-14T19:47:27;100733.05;;;7.55;100.00